Time;durP1;ratioP1;P1;durP2;ratioP2;P2;SDS_P1;SDS_P2;PMS_P1;PMS_P2;Temp;Humidity;BMP_temperature;BMP_pressure;BME280_temperature;BME280_humidity;BME280_pressure;Samples;Min_cycle;Max_cycle;Signal;HPM_P1;HPM_P2
2022/03/31 00:00:35;;;;;;;19.30;17.20;;;9.70;93.70;;;;;;5114140;28;20431;-46
2022/03/31 00:03:03;;;;;;;20.73;16.53;;;9.80;93.80;;;;;;5118141;28;20428;-46
2022/03/31 00:05:29;;;;;;;19.57;17.47;;;9.80;93.80;;;;;;5117573;28;20944;-46
2022/03/31 00:07:59;;;;;;;20.03;17.50;;;9.80;93.70;;;;;;5118067;28;20452;-46
2022/03/31 00:10:34;;;;;;;18.77;16.70;;;9.70;93.60;;;;;;5117974;28;20434;-46
2022/03/31 00:13:02;;;;;;;19.30;16.77;;;9.70;93.60;;;;;;5117586;28;20421;-46
2022/03/31 00:15:29;;;;;;;22.23;19.50;;;9.70;93.60;;;;;;5116195;28;20839;-46
2022/03/31 00:17:55;;;;;;;19.30;16.77;;;9.70;93.70;;;;;;5117319;28;20468;-46
2022/03/31 00:20:21;;;;;;;20.90;17.33;;;9.70;93.70;;;;;;5117625;28;20915;-46
2022/03/31 00:22:56;;;;;;;18.50;16.13;;;9.70;93.70;;;;;;5117476;28;20509;-47
2022/03/31 00:25:26;;;;;;;20.33;17.60;;;9.70;93.70;;;;;;5116651;28;20645;-46
2022/03/31 00:27:56;;;;;;;20.53;16.87;;;9.70;93.70;;;;;;5115739;28;20413;-46
2022/03/31 00:30:21;;;;;;;18.13;16.23;;;9.70;93.70;;;;;;5101127;28;20463;-47
2022/03/31 00:32:47;;;;;;;20.03;16.80;;;9.70;93.70;;;;;;5098900;28;20427;-47
2022/03/31 00:35:22;;;;;;;17.90;16.10;;;9.70;93.70;;;;;;5117116;28;20526;-46
2022/03/31 00:37:48;;;;;;;18.73;16.10;;;9.70;93.60;;;;;;5116065;28;20246;-46
2022/03/31 00:40:16;;;;;;;17.40;15.47;;;9.70;93.60;;;;;;5096198;28;20729;-46
2022/03/31 00:43:04;;;;;;;18.60;15.83;;;9.60;93.50;;;;;;5097370;28;20253;-46
2022/03/31 00:45:32;;;;;;;17.90;15.80;;;9.60;93.50;;;;;;5097596;28;20446;-46
2022/03/31 00:47:58;;;;;;;18.10;16.00;;;9.60;93.50;;;;;;5095629;28;20639;-47
2022/03/31 00:50:25;;;;;;;21.57;16.77;;;9.60;93.50;;;;;;5097265;28;20426;-47
2022/03/31 00:52:51;;;;;;;19.00;16.40;;;9.60;93.40;;;;;;5096940;28;20423;-47
2022/03/31 00:55:19;;;;;;;19.40;16.70;;;9.60;93.40;;;;;;5097371;28;20435;-46
2022/03/31 00:57:46;;;;;;;18.23;16.27;;;9.50;93.30;;;;;;5096928;28;20496;-46
2022/03/31 01:00:24;;;;;;;19.80;17.70;;;9.50;93.30;;;;;;5096853;28;20433;-46
2022/03/31 01:02:50;;;;;;;16.77;14.97;;;9.50;93.20;;;;;;5099704;28;20426;-46
2022/03/31 01:05:16;;;;;;;17.80;15.73;;;9.50;93.20;;;;;;5117314;28;20867;-46
2022/03/31 01:07:42;;;;;;;17.97;16.07;;;9.50;93.20;;;;;;5117417;28;20177;-45
2022/03/31 01:10:09;;;;;;;17.80;15.43;;;9.50;93.20;;;;;;5115462;28;20180;-46
2022/03/31 01:12:46;;;;;;;17.40;15.27;;;9.50;93.30;;;;;;5117161;28;20475;-46
2022/03/31 01:15:16;;;;;;;18.97;15.63;;;9.50;93.30;;;;;;5116757;28;20444;-46
2022/03/31 01:17:44;;;;;;;19.50;16.67;;;9.40;93.30;;;;;;5117175;28;20461;-46
2022/03/31 01:20:12;;;;;;;18.37;16.37;;;9.50;93.30;;;;;;5116750;28;20413;-46
2022/03/31 01:22:38;;;;;;;18.90;16.83;;;9.40;93.30;;;;;;5116890;28;20446;-46
2022/03/31 01:25:09;;;;;;;18.23;16.20;;;9.40;93.30;;;;;;5116968;28;20428;-46
2022/03/31 01:27:38;;;;;;;18.53;16.00;;;9.40;93.40;;;;;;5116442;28;20494;-46
2022/03/31 01:30:08;;;;;;;23.63;18.50;;;9.40;93.40;;;;;;5116865;28;20449;-46
2022/03/31 01:32:34;;;;;;;19.67;15.73;;;9.40;93.40;;;;;;5117040;28;20465;-46
2022/03/31 01:35:00;;;;;;;20.70;15.53;;;9.40;93.40;;;;;;5116361;28;20450;-45
2022/03/31 01:37:25;;;;;;;20.00;16.03;;;9.40;93.40;;;;;;5116113;28;20866;-47
2022/03/31 01:39:51;;;;;;;18.20;16.27;;;9.40;93.40;;;;;;5116620;28;20430;-46
2022/03/31 01:42:49;;;;;;;17.23;15.47;;;9.30;93.40;;;;;;5117130;28;20318;-46
2022/03/31 01:45:33;;;;;;;17.70;15.80;;;9.40;93.40;;;;;;5116310;28;20173;-46
2022/03/31 01:48:26;;;;;;;20.97;17.50;;;9.30;93.40;;;;;;5116344;28;20420;-46
2022/03/31 01:51:04;;;;;;;18.50;16.50;;;9.30;93.40;;;;;;5113653;28;20430;-46
2022/03/31 01:53:51;;;;;;;19.70;17.27;;;9.30;93.30;;;;;;5121106;28;20446;-46
2022/03/31 01:56:35;;;;;;;18.97;16.67;;;9.30;93.40;;;;;;5120895;28;20424;-46
2022/03/31 01:59:41;;;;;;;20.10;16.17;;;9.30;93.40;;;;;;5118233;28;20468;-46
2022/03/31 02:02:12;;;;;;;19.67;15.27;;;9.30;93.40;;;;;;5119501;28;20732;-44
2022/03/31 02:04:51;;;;;;;18.57;15.20;;;9.30;93.40;;;;;;5120430;28;20455;-44
2022/03/31 02:07:46;;;;;;;17.73;15.10;;;9.30;93.40;;;;;;5120046;28;20493;-45
2022/03/31 02:10:32;;;;;;;20.17;16.17;;;9.30;93.50;;;;;;5119582;28;20418;-45
2022/03/31 02:13:13;;;;;;;19.83;15.97;;;9.30;93.50;;;;;;5119458;28;20759;-45
2022/03/31 02:15:49;;;;;;;19.10;17.20;;;9.40;93.50;;;;;;5119732;28;20421;-45
2022/03/31 02:18:42;;;;;;;18.60;16.23;;;9.30;93.80;;;;;;5116320;28;20465;-45
2022/03/31 02:21:21;;;;;;;18.00;15.90;;;9.30;93.50;;;;;;5117779;28;20860;-45
2022/03/31 02:24:17;;;;;;;20.00;16.20;;;9.30;93.50;;;;;;5118866;28;20730;-52
2022/03/31 02:26:57;;;;;;;19.60;16.73;;;9.30;93.50;;;;;;5119104;28;20426;-45
2022/03/31 02:29:50;;;;;;;20.23;16.60;;;9.30;93.50;;;;;;5118971;28;20430;-45
2022/03/31 02:32:31;;;;;;;18.43;16.23;;;9.30;93.50;;;;;;5119230;28;20418;-45
2022/03/31 02:35:11;;;;;;;19.43;16.50;;;9.30;93.50;;;;;;5118935;28;20432;-45
2022/03/31 02:37:52;;;;;;;19.13;15.47;;;9.30;93.50;;;;;;5119125;28;20595;-46
2022/03/31 02:40:38;;;;;;;18.30;16.33;;;9.30;93.50;;;;;;5119578;28;20421;-45
2022/03/31 02:43:30;;;;;;;20.60;17.00;;;9.30;93.50;;;;;;5118687;28;20575;-45
2022/03/31 02:46:08;;;;;;;19.40;16.80;;;9.30;93.60;;;;;;5119348;28;20421;-45
2022/03/31 02:48:55;;;;;;;20.10;16.77;;;9.30;93.60;;;;;;5117281;28;20425;-45
2022/03/31 02:51:45;;;;;;;20.63;17.00;;;9.30;93.60;;;;;;5119218;28;20498;-45
2022/03/31 02:57:23;;;;;;;18.80;16.73;;;9.30;93.60;;;;;;5118742;28;20729;-45
2022/03/31 03:00:23;;;;;;;20.57;17.53;;;9.30;93.50;;;;;;5119287;28;20488;-45
2022/03/31 03:02:58;;;;;;;20.70;17.83;;;9.30;93.50;;;;;;5117295;28;20406;-45
2022/03/31 03:05:45;;;;;;;19.33;16.57;;;9.30;93.50;;;;;;5117796;28;20731;-45
2022/03/31 03:08:27;;;;;;;18.33;16.00;;;9.30;93.50;;;;;;5117225;28;20451;-45
2022/03/31 03:11:15;;;;;;;21.77;16.97;;;9.30;93.50;;;;;;5117380;28;20416;-45
2022/03/31 03:13:58;;;;;;;18.40;16.47;;;9.30;93.40;;;;;;5117776;28;20438;-45
2022/03/31 03:16:47;;;;;;;18.93;16.77;;;9.30;93.40;;;;;;5117909;28;20750;-45
2022/03/31 03:19:25;;;;;;;16.50;14.77;;;9.30;93.40;;;;;;5116669;28;20469;-45
2022/03/31 03:22:13;;;;;;;18.37;16.30;;;9.30;93.40;;;;;;5117504;28;20436;-45
2022/03/31 03:25:08;;;;;;;18.23;16.33;;;9.20;93.40;;;;;;5116948;28;20721;-45
2022/03/31 03:27:53;;;;;;;17.57;15.43;;;9.20;93.30;;;;;;5117678;28;20487;-45
2022/03/31 03:30:40;;;;;;;19.10;16.23;;;9.20;93.30;;;;;;5117301;28;20439;-45
2022/03/31 03:33:21;;;;;;;16.27;14.57;;;9.20;93.30;;;;;;5116793;28;20485;-45
2022/03/31 03:36:01;;;;;;;18.40;16.40;;;9.20;93.30;;;;;;5116686;28;20439;-45
2022/03/31 03:38:43;;;;;;;18.47;15.93;;;9.20;93.30;;;;;;5116209;28;20799;-45
2022/03/31 03:41:28;;;;;;;17.20;14.53;;;9.20;93.20;;;;;;5116318;28;20449;-45
2022/03/31 03:44:14;;;;;;;17.33;15.47;;;9.20;93.20;;;;;;5116468;28;20446;-45
2022/03/31 03:47:01;;;;;;;17.70;15.80;;;9.20;93.20;;;;;;5115743;28;20681;-44
2022/03/31 03:49:39;;;;;;;18.63;15.57;;;9.20;93.30;;;;;;5114695;28;20896;-45
2022/03/31 03:52:17;;;;;;;18.17;16.30;;;9.20;93.30;;;;;;5115016;28;20425;-45
2022/03/31 03:55:03;;;;;;;17.47;15.57;;;9.20;93.40;;;;;;5114901;28;20456;-45
2022/03/31 03:57:52;;;;;;;18.00;15.50;;;9.20;93.30;;;;;;5113767;28;20501;-45
2022/03/31 04:00:37;;;;;;;20.50;17.30;;;9.20;93.30;;;;;;5112951;28;20410;-45
2022/03/31 04:03:17;;;;;;;17.70;15.90;;;9.10;93.30;;;;;;5112919;28;20468;-47
2022/03/31 04:06:11;;;;;;;17.73;15.87;;;9.10;93.30;;;;;;5113652;28;20417;-47
2022/03/31 04:09:03;;;;;;;19.90;17.67;;;9.10;93.30;;;;;;5114235;28;20844;-47
2022/03/31 04:11:48;;;;;;;20.07;18.00;;;9.20;93.40;;;;;;5114697;28;20422;-47
2022/03/31 04:14:33;;;;;;;18.30;16.40;;;9.20;93.40;;;;;;5114245;28;21028;-47
2022/03/31 04:17:16;;;;;;;20.53;17.67;;;9.20;93.40;;;;;;5115920;28;20517;-47
2022/03/31 04:19:45;;;;;;;21.60;19.00;;;9.20;93.30;;;;;;5115535;28;20760;-47
2022/03/31 04:22:11;;;;;;;19.77;17.70;;;9.10;93.20;;;;;;5114838;28;20466;-47
2022/03/31 04:24:44;;;;;;;20.27;18.10;;;9.20;93.30;;;;;;5114375;28;20402;-47
2022/03/31 04:27:15;;;;;;;22.43;19.00;;;9.10;93.20;;;;;;5113879;28;20963;-47
2022/03/31 04:30:13;;;;;;;19.70;17.00;;;9.10;93.20;;;;;;5114170;28;20436;-48
2022/03/31 04:33:00;;;;;;;19.47;17.47;;;9.10;93.10;;;;;;5112082;28;20739;-47
2022/03/31 04:35:47;;;;;;;21.40;19.20;;;9.10;93.10;;;;;;5113110;27;20426;-47
2022/03/31 04:38:27;;;;;;;23.00;19.73;;;9.10;93.20;;;;;;5113713;28;20580;-49
2022/03/31 04:41:16;;;;;;;22.40;20.00;;;9.10;93.20;;;;;;5112715;28;20488;-47
2022/03/31 04:44:04;;;;;;;20.17;18.07;;;9.00;93.20;;;;;;5114937;28;20414;-47
2022/03/31 04:46:51;;;;;;;21.33;19.13;;;9.00;93.20;;;;;;5113207;28;20413;-47
2022/03/31 04:49:39;;;;;;;21.77;19.57;;;9.00;93.20;;;;;;5112873;28;20732;-47
2022/03/31 04:52:14;;;;;;;20.83;18.73;;;9.00;93.20;;;;;;5111507;28;20410;-47
2022/03/31 04:55:10;;;;;;;22.50;20.10;;;9.00;93.20;;;;;;5110759;28;20528;-47
2022/03/31 04:57:58;;;;;;;23.00;20.60;;;9.00;93.20;;;;;;5111169;28;20438;-47
2022/03/31 05:00:45;;;;;;;22.73;20.40;;;9.00;93.10;;;;;;5111253;28;20858;-47
2022/03/31 05:03:31;;;;;;;22.70;20.30;;;8.90;93.10;;;;;;5110494;28;21151;-47
2022/03/31 05:06:24;;;;;;;23.03;20.70;;;8.90;93.00;;;;;;5111986;28;20937;-54
2022/03/31 05:09:10;;;;;;;21.93;19.63;;;8.90;93.10;;;;;;5111194;28;20418;-47
2022/03/31 05:11:58;;;;;;;24.30;21.57;;;8.90;93.10;;;;;;5110932;28;20449;-47
2022/03/31 05:14:48;;;;;;;24.03;21.50;;;8.90;93.10;;;;;;5109650;28;20436;-47
2022/03/31 05:17:36;;;;;;;25.10;22.50;;;8.90;93.10;;;;;;5107396;28;20639;-47
2022/03/31 05:20:27;;;;;;;25.47;22.47;;;8.90;93.00;;;;;;5107255;28;20481;-48
2022/03/31 05:23:14;;;;;;;25.03;22.33;;;8.80;93.00;;;;;;5106992;28;20439;-47
2022/03/31 05:26:00;;;;;;;24.53;21.90;;;8.80;93.00;;;;;;5110290;28;20425;-47
2022/03/31 05:28:49;;;;;;;24.40;21.80;;;8.80;93.00;;;;;;5112970;28;20401;-42
2022/03/31 05:31:40;;;;;;;24.17;21.53;;;8.80;93.00;;;;;;5112975;28;20843;-42
2022/03/31 05:34:31;;;;;;;25.70;23.10;;;8.80;92.90;;;;;;5111068;28;20418;-40
2022/03/31 05:36:56;;;;;;;24.37;21.73;;;8.80;92.90;;;;;;5111849;28;20469;-40
2022/03/31 05:39:22;;;;;;;25.07;22.47;;;8.80;92.90;;;;;;5114102;28;20529;-39
2022/03/31 05:41:49;;;;;;;23.87;21.30;;;8.80;92.90;;;;;;5113741;28;20177;-41
2022/03/31 05:44:37;;;;;;;22.80;20.50;;;8.80;92.80;;;;;;5109989;28;20458;-41
2022/03/31 05:47:29;;;;;;;23.50;21.00;;;8.90;92.80;;;;;;5112438;28;20410;-43
2022/03/31 05:50:14;;;;;;;23.50;21.00;;;8.90;92.80;;;;;;5112385;28;20713;-40
2022/03/31 05:53:07;;;;;;;23.70;21.20;;;8.90;92.70;;;;;;5112962;28;20409;-40
2022/03/31 05:55:59;;;;;;;25.40;20.50;;;8.90;92.70;;;;;;5111477;28;20469;-42
2022/03/31 05:58:41;;;;;;;21.77;19.57;;;8.90;92.70;;;;;;5111419;28;20457;-43
2022/03/31 06:01:28;;;;;;;22.20;19.90;;;8.90;92.60;;;;;;5112392;28;20437;-40
2022/03/31 06:04:21;;;;;;;22.40;20.10;;;8.90;92.60;;;;;;5112245;28;20402;-40
2022/03/31 06:07:14;;;;;;;22.50;20.27;;;8.90;92.60;;;;;;5111170;28;20422;-41
2022/03/31 06:09:55;;;;;;;21.70;19.60;;;8.90;92.50;;;;;;5111114;28;20403;-42
2022/03/31 06:12:50;;;;;;;22.20;19.60;;;8.90;92.50;;;;;;5110671;28;20939;-40
2022/03/31 06:15:37;;;;;;;21.43;19.27;;;9.00;92.50;;;;;;5114402;28;20610;-40
2022/03/31 06:18:39;;;;;;;22.47;20.17;;;9.00;92.40;;;;;;5114773;27;20790;-42
2022/03/31 06:21:25;;;;;;;21.03;18.83;;;9.00;92.30;;;;;;5109445;28;20904;-41
2022/03/31 06:24:09;;;;;;;21.23;19.07;;;9.00;92.20;;;;;;5114935;28;20421;-41
2022/03/31 06:27:08;;;;;;;20.60;18.60;;;9.10;92.30;;;;;;5112423;28;20521;-42
2022/03/31 06:29:50;;;;;;;21.40;19.10;;;9.10;92.20;;;;;;5112374;28;20526;-41
2022/03/31 06:32:45;;;;;;;20.77;18.63;;;9.10;92.20;;;;;;5113183;28;20422;-41
2022/03/31 06:35:29;;;;;;;20.77;18.70;;;9.20;92.20;;;;;;5114202;28;20436;-42
2022/03/31 06:38:13;;;;;;;21.03;18.93;;;9.10;92.10;;;;;;5111865;28;20487;-42
2022/03/31 06:41:06;;;;;;;21.27;19.03;;;9.20;92.00;;;;;;5112301;27;21017;-43
2022/03/31 06:43:37;;;;;;;20.50;18.40;;;9.20;91.90;;;;;;5114132;28;20399;-41
2022/03/31 06:46:37;;;;;;;21.60;19.50;;;9.30;91.90;;;;;;5111395;28;20430;-42
2022/03/31 06:49:29;;;;;;;20.00;18.00;;;9.40;91.90;;;;;;5111262;28;20430;-39
2022/03/31 06:52:09;;;;;;;22.07;19.43;;;9.50;91.70;;;;;;5111959;28;20427;-39
2022/03/31 06:54:58;;;;;;;20.30;18.10;;;9.60;91.60;;;;;;5112138;28;20474;-39
2022/03/31 06:57:44;;;;;;;22.10;19.70;;;9.70;91.50;;;;;;5110122;28;20418;-41
2022/03/31 07:00:41;;;;;;;21.83;19.70;;;9.80;91.40;;;;;;5113844;27;20461;-39
2022/03/31 07:03:35;;;;;;;21.33;19.23;;;9.80;91.20;;;;;;5111099;28;20429;-42
2022/03/31 07:06:10;;;;;;;19.27;17.33;;;9.80;91.10;;;;;;5112686;28;20658;-39
2022/03/31 07:08:58;;;;;;;21.77;19.57;;;9.80;91.10;;;;;;5112070;28;20505;-41
2022/03/31 07:11:45;;;;;;;21.30;19.10;;;9.80;91.10;;;;;;5110621;28;20448;-41
2022/03/31 07:14:40;;;;;;;21.23;19.00;;;9.80;91.10;;;;;;5109665;28;20454;-42
2022/03/31 07:17:18;;;;;;;21.40;19.10;;;9.80;91.00;;;;;;5108927;28;20936;-41
2022/03/31 07:20:11;;;;;;;21.60;19.50;;;9.90;91.00;;;;;;5111164;28;20473;-41
2022/03/31 07:22:52;;;;;;;20.60;18.40;;;9.90;90.80;;;;;;5108054;28;20823;-41
2022/03/31 07:25:35;;;;;;;21.00;18.70;;;10.00;90.10;;;;;;5109471;28;20863;-41
2022/03/31 07:28:28;;;;;;;20.17;18.00;;;10.10;90.10;;;;;;5110549;28;20636;-39
2022/03/31 07:31:10;;;;;;;20.70;18.70;;;10.10;90.00;;;;;;5109369;28;20418;-42
2022/03/31 07:34:11;;;;;;;20.00;18.00;;;10.10;89.80;;;;;;5109292;28;20418;-41
2022/03/31 07:36:42;;;;;;;22.20;19.90;;;10.10;89.80;;;;;;5108148;28;20412;-39
2022/03/31 07:39:45;;;;;;;20.63;18.70;;;10.20;89.70;;;;;;5103632;28;20485;-40
2022/03/31 07:42:19;;;;;;;19.20;17.30;;;10.20;89.50;;;;;;5087513;28;20673;-39
2022/03/31 07:45:05;;;;;;;19.83;17.87;;;10.30;89.40;;;;;;5088816;28;20460;-39
2022/03/31 07:47:55;;;;;;;20.37;18.37;;;10.30;89.30;;;;;;5086906;28;20426;-38
2022/03/31 07:50:37;;;;;;;19.13;17.23;;;10.30;89.20;;;;;;5088381;28;20544;-39
2022/03/31 07:53:32;;;;;;;19.90;17.90;;;10.40;88.90;;;;;;5087969;28;20529;-39
2022/03/31 07:56:22;;;;;;;21.50;19.40;;;10.50;88.70;;;;;;5088181;28;20450;-40
2022/03/31 07:58:58;;;;;;;20.23;18.30;;;10.60;88.40;;;;;;5088905;28;21033;-39
2022/03/31 08:01:48;;;;;;;19.80;17.87;;;10.80;88.10;;;;;;5071034;28;20576;-39
2022/03/31 08:04:38;;;;;;;20.67;18.57;;;10.80;87.70;;;;;;5090697;28;20442;-39
2022/03/31 08:07:27;;;;;;;20.50;18.50;;;10.90;87.40;;;;;;5089570;28;20435;-39
2022/03/31 08:10:17;;;;;;;19.63;17.63;;;10.90;87.20;;;;;;5091431;28;20414;-39
2022/03/31 08:13:09;;;;;;;18.57;16.77;;;10.90;87.10;;;;;;5089866;28;20704;-40
2022/03/31 08:15:52;;;;;;;19.27;16.90;;;11.00;87.10;;;;;;5087380;28;20411;-39
2022/03/31 08:18:39;;;;;;;18.57;16.77;;;11.10;87.00;;;;;;5091421;28;20511;-39
2022/03/31 08:21:21;;;;;;;20.87;18.70;;;11.20;86.70;;;;;;5088784;28;20525;-40
2022/03/31 08:24:05;;;;;;;20.13;18.13;;;11.30;86.40;;;;;;5090161;28;20674;-39
2022/03/31 08:27:01;;;;;;;20.53;18.53;;;11.40;86.20;;;;;;5090708;28;20492;-40
2022/03/31 08:30:07;;;;;;;18.23;16.33;;;11.50;86.10;;;;;;5091734;28;20472;-39
2022/03/31 08:32:39;;;;;;;18.97;17.07;;;11.50;85.90;;;;;;5066259;28;20456;-40
2022/03/31 08:35:29;;;;;;;19.53;17.53;;;11.60;85.70;;;;;;5084895;28;20663;-40
2022/03/31 08:38:14;;;;;;;20.33;17.83;;;11.60;85.40;;;;;;5086909;28;20478;-39
2022/03/31 08:40:56;;;;;;;20.40;18.20;;;11.70;85.10;;;;;;5091431;28;20865;-42
2022/03/31 08:43:46;;;;;;;19.33;17.40;;;11.80;84.90;;;;;;5109623;28;20475;-40
2022/03/31 08:46:22;;;;;;;22.00;19.70;;;11.90;84.50;;;;;;5109488;28;20544;-40
2022/03/31 08:49:20;;;;;;;20.60;17.40;;;12.00;84.20;;;;;;5110240;28;20433;-40
2022/03/31 08:51:59;;;;;;;20.20;18.07;;;12.10;83.80;;;;;;5110289;28;20437;-41
2022/03/31 08:54:45;;;;;;;22.97;20.00;;;12.10;83.40;;;;;;5111197;28;20807;-41
2022/03/31 08:57:44;;;;;;;21.90;19.30;;;12.20;83.10;;;;;;5111057;28;20429;-39
2022/03/31 09:00:29;;;;;;;21.30;19.00;;;12.40;83.10;;;;;;5110556;28;20414;-39
2022/03/31 09:03:16;;;;;;;19.43;17.47;;;12.50;82.70;;;;;;5113517;27;20680;-40
2022/03/31 09:06:00;;;;;;;20.47;17.80;;;12.70;82.30;;;;;;5113009;28;20406;-40
2022/03/31 09:08:55;;;;;;;20.07;16.80;;;13.00;82.00;;;;;;5112104;28;20516;-40
2022/03/31 09:11:53;;;;;;;19.07;17.00;;;13.30;81.90;;;;;;5110099;28;20441;-41
2022/03/31 09:14:39;;;;;;;20.67;17.10;;;13.60;81.20;;;;;;5105331;28;20414;-40
2022/03/31 09:17:34;;;;;;;18.83;16.83;;;14.00;80.40;;;;;;5114033;28;20408;-40
2022/03/31 09:20:34;;;;;;;18.70;16.83;;;14.50;79.60;;;;;;5098896;28;20445;-41
2022/03/31 09:23:18;;;;;;;16.53;14.67;;;14.80;78.20;;;;;;5114985;28;20418;-42
2022/03/31 09:26:12;;;;;;;16.77;15.00;;;15.00;77.20;;;;;;5115202;28;20854;-41
2022/03/31 09:29:13;;;;;;;18.33;15.73;;;15.10;76.40;;;;;;5114516;28;20756;-40
2022/03/31 09:31:56;;;;;;;19.10;16.37;;;15.10;75.80;;;;;;5115892;28;20428;-41
2022/03/31 09:34:42;;;;;;;18.23;16.20;;;15.10;75.50;;;;;;5116257;28;20478;-41
2022/03/31 09:37:34;;;;;;;19.47;17.40;;;15.00;75.10;;;;;;5115821;28;20416;-40
2022/03/31 09:40:15;;;;;;;18.17;16.30;;;14.90;75.00;;;;;;5116028;28;20444;-40
2022/03/31 09:43:02;;;;;;;17.37;15.23;;;14.90;74.80;;;;;;5114238;28;20433;-41
2022/03/31 09:46:11;;;;;;;17.70;14.27;;;14.80;74.70;;;;;;5113723;28;20429;-41
2022/03/31 09:48:59;;;;;;;17.70;14.43;;;14.80;74.70;;;;;;5112066;28;20405;-42
2022/03/31 09:52:02;;;;;;;18.03;14.83;;;14.80;74.60;;;;;;5113954;28;20460;-40
2022/03/31 09:54:45;;;;;;;17.63;15.83;;;14.80;74.50;;;;;;5115343;28;20823;-41
2022/03/31 09:57:35;;;;;;;16.27;14.43;;;14.80;74.40;;;;;;5113952;28;20433;-41
2022/03/31 10:00:40;;;;;;;19.70;14.70;;;14.70;74.10;;;;;;5115070;28;20491;-40
2022/03/31 10:03:17;;;;;;;16.63;14.50;;;14.70;73.90;;;;;;5033642;28;20529;-43
2022/03/31 10:06:14;;;;;;;17.80;15.90;;;14.70;74.00;;;;;;5105969;28;20519;-40
2022/03/31 10:09:06;;;;;;;16.87;15.07;;;14.70;73.90;;;;;;5107410;28;20434;-42
2022/03/31 10:12:02;;;;;;;20.87;18.53;;;14.80;73.80;;;;;;5112630;28;20438;-42
2022/03/31 10:14:46;;;;;;;18.10;16.30;;;14.80;73.70;;;;;;5114816;28;21103;-41
2022/03/31 10:17:30;;;;;;;17.97;15.40;;;14.90;74.10;;;;;;5097565;28;20425;-41
2022/03/31 10:20:16;;;;;;;22.10;18.07;;;15.00;73.00;;;;;;5115004;28;20921;-40
2022/03/31 10:25:49;;;;;;;14.80;13.30;;;15.30;72.10;;;;;;5113668;28;20599;-41
2022/03/31 10:28:35;;;;;;;13.07;11.67;;;15.50;71.70;;;;;;5111501;28;20428;-42
2022/03/31 10:31:40;;;;;;;13.87;12.50;;;15.80;71.40;;;;;;5112141;28;20524;-45
2022/03/31 10:34:15;;;;;;;14.00;12.70;;;16.10;70.90;;;;;;5085590;28;20652;-42
2022/03/31 10:37:27;;;;;;;14.03;12.67;;;16.30;70.00;;;;;;5108207;28;20433;-42
2022/03/31 10:40:10;;;;;;;13.17;11.87;;;16.50;69.10;;;;;;5109016;28;21024;-46
2022/03/31 10:43:11;;;;;;;12.67;11.33;;;16.70;68.10;;;;;;5089796;28;20829;-43
2022/03/31 10:45:58;;;;;;;14.17;12.77;;;16.70;67.40;;;;;;5093936;28;20425;-41
2022/03/31 10:49:12;;;;;;;13.67;12.27;;;16.70;66.80;;;;;;5090660;28;20441;-41
2022/03/31 10:51:41;;;;;;;14.83;12.90;;;16.70;66.50;;;;;;5082646;28;20418;-44
2022/03/31 10:54:33;;;;;;;15.43;13.20;;;16.60;66.30;;;;;;5092264;28;20429;-41
2022/03/31 10:57:24;;;;;;;17.27;15.53;;;16.40;66.20;;;;;;5093688;28;20492;-41
2022/03/31 11:00:19;;;;;;;15.80;14.20;;;16.30;66.30;;;;;;5090401;28;20477;-43
2022/03/31 11:03:05;;;;;;;16.73;14.97;;;16.10;66.50;;;;;;5087248;28;20874;-41
2022/03/31 11:06:10;;;;;;;14.40;13.00;;;15.80;66.70;;;;;;5086457;28;20480;-40
2022/03/31 11:08:57;;;;;;;17.10;14.47;;;15.60;67.00;;;;;;5087139;28;20748;-41
2022/03/31 11:11:45;;;;;;;16.50;14.97;;;15.40;67.50;;;;;;5101331;28;20527;-40
2022/03/31 11:14:40;;;;;;;15.70;14.03;;;15.20;67.90;;;;;;5110048;28;20430;-41
2022/03/31 11:17:40;;;;;;;14.63;13.23;;;15.00;68.40;;;;;;5105881;28;20438;-42
2022/03/31 11:20:27;;;;;;;16.73;15.10;;;14.80;68.80;;;;;;5104224;28;20431;-41
2022/03/31 11:23:21;;;;;;;16.37;14.80;;;14.70;69.20;;;;;;5105597;28;20856;-43
2022/03/31 11:26:32;;;;;;;15.90;14.43;;;14.60;69.60;;;;;;5107030;28;20521;-40
2022/03/31 11:29:12;;;;;;;15.07;13.47;;;14.50;69.90;;;;;;5106659;28;20521;-40
2022/03/31 11:32:11;;;;;;;15.53;14.07;;;14.50;70.30;;;;;;5105235;28;20477;-42
2022/03/31 11:34:53;;;;;;;15.63;13.90;;;14.70;70.60;;;;;;5096368;27;20618;-42
2022/03/31 11:37:27;;;;;;;13.40;12.10;;;14.80;70.30;;;;;;5107102;28;20421;-41
2022/03/31 11:40:37;;;;;;;14.97;12.83;;;15.10;70.20;;;;;;5107635;28;20477;-42
2022/03/31 11:43:16;;;;;;;14.33;12.67;;;15.20;69.60;;;;;;5106761;28;20402;-41
2022/03/31 11:46:06;;;;;;;14.97;13.47;;;15.30;69.00;;;;;;5107264;28;20704;-42
2022/03/31 11:49:01;;;;;;;16.50;14.83;;;15.30;68.70;;;;;;5106682;27;20616;-41
2022/03/31 11:52:00;;;;;;;16.00;14.30;;;15.30;68.50;;;;;;5108915;28;20418;-41
2022/03/31 11:54:43;;;;;;;16.23;14.63;;;15.30;68.40;;;;;;5111844;28;20496;-42
2022/03/31 11:57:33;;;;;;;14.63;13.23;;;15.20;68.30;;;;;;5110397;28;20543;-40
2022/03/31 12:00:28;;;;;;;16.13;14.57;;;15.20;68.30;;;;;;5110960;28;20462;-41
2022/03/31 12:03:16;;;;;;;15.77;13.50;;;15.10;68.10;;;;;;5106536;28;20502;-43
2022/03/31 12:06:00;;;;;;;17.23;15.37;;;15.10;68.20;;;;;;5111861;28;20827;-42
2022/03/31 12:08:55;;;;;;;15.53;14.00;;;15.00;68.30;;;;;;5108943;28;20425;-41
2022/03/31 12:11:48;;;;;;;15.20;13.60;;;15.00;68.40;;;;;;5111498;28;20807;-43
2022/03/31 12:15:09;;;;;;;17.53;15.80;;;14.90;68.50;;;;;;5109891;28;20727;-40
2022/03/31 12:17:42;;;;;;;18.20;16.30;;;14.90;68.50;;;;;;5106970;28;20429;-42
2022/03/31 12:20:18;;;;;;;17.53;14.53;;;14.90;68.50;;;;;;5109318;28;20860;-40
2022/03/31 12:23:04;;;;;;;15.40;13.90;;;14.90;68.50;;;;;;5109028;28;20455;-40
2022/03/31 12:25:59;;;;;;;18.30;16.33;;;14.80;68.50;;;;;;5108869;28;20626;-40
2022/03/31 12:28:58;;;;;;;18.10;16.20;;;14.80;68.50;;;;;;5105352;28;20813;-41
2022/03/31 12:31:44;;;;;;;16.73;15.03;;;14.80;68.60;;;;;;5088202;28;20872;-43
2022/03/31 12:34:41;;;;;;;17.27;15.57;;;14.90;68.60;;;;;;5090468;28;20445;-42
2022/03/31 12:37:40;;;;;;;16.83;15.00;;;15.00;68.50;;;;;;5088872;28;20546;-40
2022/03/31 12:40:29;;;;;;;17.30;15.60;;;15.10;68.40;;;;;;5089105;28;20840;-41
2022/03/31 12:43:11;;;;;;;17.23;15.53;;;15.20;68.30;;;;;;5072998;28;20460;-40
2022/03/31 12:45:55;;;;;;;18.13;16.27;;;15.20;68.20;;;;;;5091371;28;20425;-41
2022/03/31 12:48:59;;;;;;;18.30;16.40;;;15.20;67.90;;;;;;5090674;28;20403;-46
2022/03/31 12:52:01;;;;;;;17.77;15.83;;;15.20;67.80;;;;;;5090438;28;20508;-41
2022/03/31 12:54:42;;;;;;;17.00;15.37;;;15.30;67.70;;;;;;5089702;28;20422;-41
2022/03/31 12:57:38;;;;;;;17.23;15.43;;;15.30;67.60;;;;;;5089365;28;20413;-40
2022/03/31 13:00:37;;;;;;;17.93;16.17;;;15.40;67.60;;;;;;5105134;28;20575;-41
2022/03/31 13:03:34;;;;;;;18.20;15.53;;;15.50;67.60;;;;;;5109732;28;20441;-43
2022/03/31 13:06:28;;;;;;;20.33;15.30;;;15.70;67.30;;;;;;5110159;28;20402;-41
2022/03/31 13:09:08;;;;;;;16.93;15.00;;;15.90;67.10;;;;;;5108123;28;20495;-42
2022/03/31 13:12:13;;;;;;;16.80;15.20;;;16.20;66.80;;;;;;5106853;28;20413;-42
2022/03/31 13:15:01;;;;;;;14.50;13.10;;;16.50;66.20;;;;;;5108829;28;20841;-40
2022/03/31 13:17:53;;;;;;;16.30;14.67;;;16.90;65.50;;;;;;5109178;28;20433;-41
2022/03/31 13:20:44;;;;;;;14.13;12.73;;;17.20;64.60;;;;;;5106974;28;20433;-40
2022/03/31 13:23:40;;;;;;;15.17;13.70;;;17.50;63.50;;;;;;5107929;28;20815;-40
2022/03/31 13:26:48;;;;;;;16.70;15.00;;;17.60;62.60;;;;;;5110205;28;20438;-41
2022/03/31 13:29:32;;;;;;;15.10;13.40;;;17.70;61.80;;;;;;5085890;28;20471;-42
2022/03/31 13:32:20;;;;;;;15.23;13.07;;;17.70;61.20;;;;;;5110482;28;20413;-42
2022/03/31 13:35:16;;;;;;;14.53;13.03;;;17.70;61.00;;;;;;5110034;28;20533;-52
2022/03/31 13:38:16;;;;;;;13.97;12.67;;;17.50;60.80;;;;;;5105068;28;20425;-41
2022/03/31 13:41:05;;;;;;;14.57;13.17;;;17.50;60.90;;;;;;5106078;28;20426;-42
2022/03/31 13:44:03;;;;;;;16.63;14.90;;;17.30;61.00;;;;;;5108270;28;20403;-41
2022/03/31 13:46:55;;;;;;;15.43;13.93;;;17.00;61.10;;;;;;5106818;28;20480;-40
2022/03/31 13:49:46;;;;;;;15.33;13.93;;;16.80;61.30;;;;;;5111645;28;20426;-41
2022/03/31 13:52:36;;;;;;;16.30;14.77;;;16.60;61.80;;;;;;5111440;28;20568;-40
2022/03/31 13:55:25;;;;;;;18.80;17.10;;;16.40;62.60;;;;;;5113462;28;20459;-42
2022/03/31 14:01:19;;;;;;;18.40;16.50;;;16.00;65.00;;;;;;5114244;28;20463;-41
2022/03/31 14:04:15;;;;;;;20.10;17.90;;;15.90;66.20;;;;;;5108505;28;20690;-41
2022/03/31 14:07:09;;;;;;;19.60;17.57;;;15.80;67.20;;;;;;5112496;28;20909;-42
2022/03/31 14:10:09;;;;;;;21.37;18.17;;;15.80;67.90;;;;;;5109774;28;20526;-41
2022/03/31 14:13:00;;;;;;;20.63;17.90;;;15.60;68.60;;;;;;5112311;28;20815;-42
2022/03/31 14:15:44;;;;;;;20.13;18.10;;;15.50;69.10;;;;;;5110430;28;20422;-41